createdAt,value
2023-03-04T00:01:23.591Z,18.76
2023-03-04T00:03:50.914Z,18.78
2023-03-04T00:06:18.142Z,18.75
2023-03-04T00:08:44.482Z,18.65
2023-03-04T00:11:10.870Z,18.67
2023-03-04T00:16:23.122Z,18.66
2023-03-04T00:18:49.502Z,18.61
2023-03-04T00:21:15.940Z,18.65
2023-03-04T00:23:42.294Z,18.66
2023-03-04T00:26:08.626Z,18.70
2023-03-04T00:31:30.073Z,18.66
2023-03-04T00:33:57.308Z,18.63
2023-03-04T00:36:23.638Z,18.66
2023-03-04T00:38:50.964Z,18.68
2023-03-04T00:41:17.463Z,18.67
2023-03-04T00:46:28.775Z,18.64
2023-03-04T00:48:55.168Z,18.66
2023-03-04T00:51:21.613Z,18.68
2023-03-04T00:53:48.973Z,18.65
2023-03-04T00:56:15.369Z,18.63
2023-03-04T01:01:35.611Z,18.64
2023-03-04T01:04:02.850Z,18.64
2023-03-04T01:06:29.233Z,18.61
2023-03-04T01:08:56.463Z,18.61
2023-03-04T01:11:23.697Z,18.63
2023-03-04T01:16:43.899Z,18.60
2023-03-04T01:19:10.345Z,18.57
2023-03-04T01:21:36.690Z,18.65
2023-03-04T01:24:03.930Z,18.57
2023-03-04T01:26:31.176Z,18.62
2023-03-04T01:31:41.432Z,18.60
2023-03-04T01:34:07.756Z,18.65
2023-03-04T01:36:34.115Z,18.63
2023-03-04T01:39:00.452Z,18.65
2023-03-04T01:41:26.800Z,18.64
2023-03-04T01:46:48.156Z,18.63
2023-03-04T01:49:15.399Z,18.67
2023-03-04T01:51:42.618Z,18.67
2023-03-04T01:54:09.842Z,18.62
2023-03-04T01:56:36.169Z,18.62
2023-03-04T02:01:56.716Z,18.60
2023-03-04T02:04:23.220Z,18.57
2023-03-04T02:06:49.583Z,18.57
2023-03-04T02:09:16.804Z,18.56
2023-03-04T02:11:43.141Z,18.64
2023-03-04T02:17:04.415Z,18.62
2023-03-04T02:19:30.820Z,18.54
2023-03-04T02:21:57.154Z,18.60
2023-03-04T02:24:23.478Z,18.61
2023-03-04T02:26:49.818Z,18.57
2023-03-04T02:32:00.078Z,18.63
2023-03-04T02:34:26.438Z,18.60
2023-03-04T02:36:52.842Z,18.60
2023-03-04T02:39:19.170Z,18.56
2023-03-04T02:41:45.690Z,18.58
2023-03-04T02:47:06.265Z,18.47
2023-03-04T02:49:32.602Z,18.47
2023-03-04T02:51:58.934Z,18.58
2023-03-04T02:54:25.378Z,18.52
2023-03-04T02:56:51.706Z,18.63
2023-03-04T03:02:03.087Z,18.58
2023-03-04T03:04:29.468Z,18.58
2023-03-04T03:06:55.834Z,18.48
2023-03-04T03:09:22.170Z,18.54
2023-03-04T03:11:48.593Z,18.47
2023-03-04T03:14:14.969Z,18.50
2023-03-04T03:16:41.344Z,18.49
2023-03-04T03:19:07.690Z,18.51
2023-03-04T03:21:34.045Z,18.53
2023-03-04T03:24:00.453Z,18.46
2023-03-04T03:26:26.776Z,18.59
2023-03-04T03:28:53.112Z,18.56
2023-03-04T03:31:19.482Z,18.56
2023-03-04T03:33:45.850Z,18.52
2023-03-04T03:36:13.094Z,18.51
2023-03-04T03:38:39.436Z,18.57
2023-03-04T03:41:05.806Z,18.53
2023-03-04T03:43:32.164Z,18.50
2023-03-04T03:45:58.611Z,18.47
2023-03-04T03:48:25.849Z,18.49
2023-03-04T03:50:52.173Z,18.45
2023-03-04T03:53:18.491Z,18.57
2023-03-04T03:55:44.832Z,18.57
2023-03-04T03:58:11.663Z,18.53
2023-03-04T04:00:38.027Z,18.52
2023-03-04T04:03:04.389Z,18.52
2023-03-04T04:05:30.757Z,18.59
2023-03-04T04:07:57.106Z,18.56
2023-03-04T04:10:23.518Z,18.56
2023-03-04T04:12:49.836Z,18.54
2023-03-04T04:15:16.182Z,18.54
2023-03-04T04:20:36.417Z,18.55
2023-03-04T04:23:02.818Z,18.50
2023-03-04T04:25:29.161Z,18.53
2023-03-04T04:27:55.527Z,18.52
2023-03-04T04:30:21.877Z,18.47
2023-03-04T04:35:32.032Z,18.51
2023-03-04T04:37:58.365Z,18.48
2023-03-04T04:40:24.715Z,18.51
2023-03-04T04:42:51.048Z,18.51
2023-03-04T04:45:18.237Z,18.52
2023-03-04T04:50:38.588Z,18.51
2023-03-04T04:53:04.989Z,18.47
2023-03-04T04:55:31.327Z,18.48
2023-03-04T04:57:57.634Z,18.53
2023-03-04T05:00:24.006Z,18.50
2023-03-04T05:05:34.153Z,18.50
2023-03-04T05:08:00.485Z,18.45
2023-03-04T05:10:26.903Z,18.47
2023-03-04T05:12:53.227Z,18.46
2023-03-04T05:15:19.575Z,18.49
2023-03-04T05:20:39.721Z,18.45
2023-03-04T05:23:06.081Z,18.48
2023-03-04T05:25:32.410Z,18.53
2023-03-04T05:27:58.949Z,18.54
2023-03-04T05:30:25.294Z,18.56
2023-03-04T05:35:35.510Z,18.68
2023-03-04T05:38:01.824Z,18.72
2023-03-04T05:40:28.177Z,18.86
2023-03-04T05:42:54.488Z,18.80
2023-03-04T05:45:20.909Z,18.75
2023-03-04T05:50:31.461Z,18.77
2023-03-04T05:52:57.806Z,18.74
2023-03-04T05:55:24.137Z,18.74
2023-03-04T05:57:50.613Z,18.69
2023-03-04T06:00:17.999Z,18.71
2023-03-04T06:05:39.471Z,18.77
2023-03-04T06:08:06.957Z,18.72
2023-03-04T06:10:33.441Z,18.68
2023-03-04T06:13:00.756Z,18.71
2023-03-04T06:15:28.174Z,18.70
2023-03-04T06:20:39.400Z,18.77
2023-03-04T06:23:06.786Z,18.76
2023-03-04T06:25:33.309Z,18.78
2023-03-04T06:27:59.760Z,18.73
2023-03-04T06:30:27.024Z,18.72
2023-03-04T06:35:48.406Z,18.78
2023-03-04T06:38:18.258Z,18.79
2023-03-04T06:40:45.675Z,18.75
2023-03-04T06:43:13.253Z,18.73
2023-03-04T06:45:40.630Z,18.72
2023-03-04T06:50:52.195Z,18.80
2023-03-04T06:53:18.653Z,18.82
2023-03-04T06:55:45.209Z,18.83
2023-03-04T06:58:12.592Z,18.83
2023-03-04T07:00:39.119Z,18.76
2023-03-04T07:03:06.538Z,18.79
2023-03-04T07:05:33.004Z,18.71
2023-03-04T07:07:59.474Z,18.68
2023-03-04T07:10:26.889Z,18.65
2023-03-04T07:12:54.400Z,18.69
2023-03-04T07:15:21.810Z,18.79
2023-03-04T07:17:48.302Z,18.77
2023-03-04T07:20:15.779Z,18.76
2023-03-04T07:22:43.155Z,18.82
2023-03-04T07:25:09.713Z,18.74
2023-03-04T07:27:36.156Z,18.84
2023-03-04T07:30:02.636Z,18.75
2023-03-04T07:32:29.199Z,18.79
2023-03-04T07:34:55.683Z,18.80
2023-03-04T07:37:22.141Z,18.73
2023-03-04T07:39:48.603Z,18.70
2023-03-04T07:42:16.014Z,18.77
2023-03-04T07:44:42.482Z,18.70
2023-03-04T07:47:10.092Z,18.71
2023-03-04T07:49:36.569Z,18.75
2023-03-04T07:52:03.045Z,18.73
2023-03-04T07:54:29.541Z,18.82
2023-03-04T07:56:56.954Z,18.77
2023-03-04T07:59:24.449Z,18.80
2023-03-04T08:01:51.846Z,18.84
2023-03-04T08:04:18.343Z,18.76
2023-03-04T08:09:40.723Z,18.80
2023-03-04T08:12:07.207Z,18.78
2023-03-04T08:14:34.652Z,18.74
2023-03-04T08:17:02.158Z,18.70
2023-03-04T08:19:29.562Z,18.74
2023-03-04T08:24:40.223Z,18.76
2023-03-04T08:27:07.660Z,18.86
2023-03-04T08:29:35.073Z,18.90
2023-03-04T08:32:01.659Z,18.88
2023-03-04T08:34:29.128Z,18.92
2023-03-04T08:39:41.755Z,18.84
2023-03-04T08:42:08.224Z,18.80
2023-03-04T08:44:34.698Z,18.74
2023-03-04T08:47:01.164Z,18.73
2023-03-04T08:49:27.649Z,18.77
2023-03-04T08:54:47.951Z,18.73
2023-03-04T08:57:15.388Z,18.69
2023-03-04T08:59:41.851Z,18.65
2023-03-04T09:02:08.310Z,18.60
2023-03-04T09:04:35.697Z,18.66
2023-03-04T09:09:46.179Z,18.66
2023-03-04T09:12:12.621Z,18.65
2023-03-04T09:14:39.129Z,18.64
2023-03-04T09:17:05.608Z,18.66
2023-03-04T09:19:33.099Z,17.22
2023-03-04T09:24:44.765Z,15.95
2023-03-04T09:27:11.196Z,15.63
2023-03-04T09:29:37.632Z,15.65
2023-03-04T09:32:04.084Z,15.47
2023-03-04T09:34:30.532Z,15.30
2023-03-04T09:39:50.856Z,17.51
2023-03-04T09:42:17.348Z,17.90
2023-03-04T09:44:44.597Z,18.13
2023-03-04T09:47:11.013Z,18.52
2023-03-04T09:49:38.405Z,18.38
2023-03-04T09:54:50.826Z,18.33
2023-03-04T09:57:17.270Z,18.42
2023-03-04T09:59:43.719Z,18.45
2023-03-04T10:02:10.223Z,18.33
2023-03-04T10:04:36.671Z,18.34
2023-03-04T10:10:00.913Z,18.28
2023-03-04T10:12:30.065Z,18.36
2023-03-04T10:14:58.358Z,18.29
2023-03-04T10:17:25.593Z,18.28
2023-03-04T10:19:51.970Z,18.27
2023-03-04T10:25:12.652Z,18.27
2023-03-04T10:27:39.961Z,18.21
2023-03-04T10:30:06.373Z,18.21
2023-03-04T10:32:33.623Z,18.27
2023-03-04T10:35:00.895Z,18.24
2023-03-04T10:40:11.478Z,18.18
2023-03-04T10:42:38.220Z,18.18
2023-03-04T10:45:04.798Z,18.21
2023-03-04T10:47:32.285Z,18.22
2023-03-04T10:49:58.664Z,18.22
2023-03-04T10:55:18.774Z,18.25
2023-03-04T10:57:45.132Z,18.25
2023-03-04T11:00:12.382Z,18.25
2023-03-04T11:02:38.820Z,18.22
2023-03-04T11:05:08.012Z,18.24
2023-03-04T11:10:30.668Z,16.48
2023-03-04T11:12:58.107Z,17.44
2023-03-04T11:15:26.428Z,18.12
2023-03-04T11:17:54.685Z,18.33
2023-03-04T11:20:22.038Z,18.40
2023-03-04T11:25:32.447Z,18.57
2023-03-04T11:28:00.714Z,19.10
2023-03-04T11:30:29.013Z,19.55
2023-03-04T11:32:55.410Z,19.89
2023-03-04T11:35:24.760Z,19.60
2023-03-04T11:40:35.739Z,19.20
2023-03-04T11:43:02.098Z,19.68
2023-03-04T11:45:30.882Z,19.62
2023-03-04T11:47:58.186Z,19.39
2023-03-04T11:50:24.538Z,19.54
2023-03-04T11:55:45.498Z,18.77
2023-03-04T11:58:12.812Z,18.88
2023-03-04T12:00:40.076Z,18.81
2023-03-04T12:03:06.445Z,19.18
2023-03-04T12:05:32.803Z,19.10
2023-03-04T12:10:45.069Z,19.02
2023-03-04T12:13:12.296Z,19.37
2023-03-04T12:15:38.763Z,18.73
2023-03-04T12:18:05.238Z,18.64
2023-03-04T12:20:31.744Z,18.55
2023-03-04T12:25:55.765Z,18.51
2023-03-04T12:28:22.202Z,18.46
2023-03-04T12:30:48.675Z,18.44
2023-03-04T12:33:15.156Z,18.43
2023-03-04T12:35:42.913Z,18.43
2023-03-04T12:41:06.970Z,18.46
2023-03-04T12:43:36.025Z,18.45
2023-03-04T12:46:03.566Z,18.46
2023-03-04T12:48:30.949Z,18.47
2023-03-04T12:50:57.385Z,18.48
2023-03-04T12:56:10.277Z,18.50
2023-03-04T12:58:36.801Z,18.50
2023-03-04T13:01:03.269Z,18.50
2023-03-04T13:03:30.778Z,18.51
2023-03-04T13:05:57.334Z,18.48
2023-03-04T13:08:24.701Z,18.49
2023-03-04T13:10:52.683Z,18.50
2023-03-04T13:13:19.090Z,18.51
2023-03-04T13:15:45.532Z,18.54
2023-03-04T13:18:12.859Z,18.54
2023-03-04T13:20:40.151Z,18.53
2023-03-04T13:23:07.528Z,18.52
2023-03-04T13:25:34.017Z,18.52
2023-03-04T13:28:02.480Z,18.51
2023-03-04T13:30:29.805Z,18.50
2023-03-04T13:32:57.153Z,18.49
2023-03-04T13:35:24.437Z,18.47
2023-03-04T13:37:52.761Z,18.43
2023-03-04T13:40:19.224Z,18.40
2023-03-04T13:42:45.724Z,18.33
2023-03-04T13:45:14.042Z,18.32
2023-03-04T13:47:42.301Z,18.29
2023-03-04T13:50:10.758Z,18.25
2023-03-04T13:52:39.041Z,18.21
2023-03-04T13:55:09.237Z,18.26
2023-03-04T13:57:35.683Z,18.27
2023-03-04T14:00:04.012Z,18.26
2023-03-04T14:02:30.450Z,18.25
2023-03-04T14:04:56.892Z,18.25
2023-03-04T14:07:25.180Z,18.27
2023-03-04T14:09:52.454Z,18.28
2023-03-04T14:12:18.851Z,18.33
2023-03-04T14:14:46.096Z,18.29
2023-03-04T14:17:15.252Z,18.28
2023-03-04T14:19:41.662Z,18.28
2023-03-04T14:22:08.054Z,18.29
2023-03-04T14:24:35.310Z,18.27
2023-03-04T14:27:01.700Z,18.27
2023-03-04T14:29:28.074Z,18.31
2023-03-04T14:31:54.543Z,18.30
2023-03-04T14:34:20.916Z,18.32
2023-03-04T14:36:47.267Z,18.31
2023-03-04T14:39:13.645Z,18.30
2023-03-04T14:44:23.746Z,18.32
2023-03-04T14:47:06.085Z,18.31
2023-03-04T14:49:33.613Z,18.32
2023-03-04T14:51:59.974Z,18.32
2023-03-04T14:54:26.533Z,18.35
2023-03-04T14:59:37.090Z,18.25
2023-03-04T15:02:03.409Z,18.29
2023-03-04T15:04:30.662Z,18.31
2023-03-04T15:06:57.040Z,18.27
2023-03-04T15:09:23.377Z,18.29
2023-03-04T15:14:43.755Z,18.28
2023-03-04T15:17:11.027Z,18.32
2023-03-04T15:19:37.430Z,18.30
2023-03-04T15:22:04.675Z,18.26
2023-03-04T15:24:31.042Z,18.27
2023-03-04T15:29:52.246Z,18.29
2023-03-04T15:32:18.675Z,18.27
2023-03-04T15:34:45.065Z,18.28
2023-03-04T15:37:13.436Z,18.28
2023-03-04T15:39:39.772Z,18.28
2023-03-04T15:44:49.793Z,18.24
2023-03-04T15:47:16.159Z,18.24
2023-03-04T15:49:43.578Z,18.22
2023-03-04T15:52:09.967Z,18.20
2023-03-04T15:54:36.311Z,18.21
2023-03-04T15:59:56.362Z,18.21
2023-03-04T16:02:22.722Z,18.23
2023-03-04T16:04:49.059Z,18.21
2023-03-04T16:07:15.580Z,18.19
2023-03-04T16:09:41.943Z,18.17
2023-03-04T16:14:51.992Z,18.11
2023-03-04T16:17:18.343Z,18.15
2023-03-04T16:19:44.804Z,18.12
2023-03-04T16:22:11.168Z,18.15
2023-03-04T16:24:37.512Z,18.12
2023-03-04T16:29:57.748Z,18.08
2023-03-04T16:32:24.181Z,18.14
2023-03-04T16:34:50.582Z,18.11
2023-03-04T16:37:17.139Z,18.08
2023-03-04T16:39:43.511Z,18.10
2023-03-04T16:44:53.989Z,18.03
2023-03-04T16:47:20.386Z,18.07
2023-03-04T16:49:46.863Z,18.04
2023-03-04T16:52:13.208Z,18.08
2023-03-04T16:54:39.572Z,18.05
2023-03-04T17:00:00.195Z,18.05
2023-03-04T17:02:26.776Z,18.02
2023-03-04T17:04:53.171Z,18.07
2023-03-04T17:07:19.474Z,18.06
2023-03-04T17:09:45.808Z,18.04
2023-03-04T17:14:55.831Z,18.03
2023-03-04T17:17:22.186Z,18.06
2023-03-04T17:19:48.746Z,18.04
2023-03-04T17:22:15.077Z,18.04
2023-03-04T17:24:41.435Z,18.08
2023-03-04T17:30:01.877Z,18.05
2023-03-04T17:32:28.567Z,18.03
2023-03-04T17:34:54.920Z,18.02
2023-03-04T17:37:21.283Z,18.05
2023-03-04T17:39:47.632Z,18.03
2023-03-04T17:45:00.819Z,18.04
2023-03-04T17:47:27.225Z,18.05
2023-03-04T17:49:53.716Z,18.04
2023-03-04T17:52:20.075Z,18.03
2023-03-04T17:54:46.427Z,18.02
2023-03-04T18:00:06.929Z,17.99
2023-03-04T18:02:33.361Z,17.99
2023-03-04T18:04:59.748Z,18.02
2023-03-04T18:07:26.316Z,18.00
2023-03-04T18:09:52.695Z,17.96
2023-03-04T18:15:05.890Z,18.01
2023-03-04T18:17:32.247Z,18.00
2023-03-04T18:19:58.631Z,18.03
2023-03-04T18:22:24.975Z,18.08
2023-03-04T18:24:51.480Z,18.08
2023-03-04T18:30:01.922Z,18.18
2023-03-04T18:32:28.458Z,18.20
2023-03-04T18:34:57.981Z,18.22
2023-03-04T18:37:24.581Z,18.17
2023-03-04T18:39:50.923Z,18.18
2023-03-04T18:42:17.459Z,18.21
2023-03-04T18:44:43.802Z,18.23
2023-03-04T18:47:10.143Z,18.22
2023-03-04T18:49:36.479Z,18.26
2023-03-04T18:52:02.844Z,18.30
2023-03-04T18:54:34.044Z,18.29
2023-03-04T18:57:00.694Z,18.38
2023-03-04T18:59:27.578Z,18.39
2023-03-04T19:01:56.699Z,18.40
2023-03-04T19:04:23.018Z,18.42
2023-03-04T19:06:49.379Z,18.41
2023-03-04T19:09:15.744Z,18.42
2023-03-04T19:11:42.091Z,18.43
2023-03-04T19:14:08.474Z,18.49
2023-03-04T19:16:35.070Z,18.51
2023-03-04T19:19:01.489Z,18.50
2023-03-04T19:21:27.868Z,18.45
2023-03-04T19:23:54.275Z,18.45
2023-03-04T19:26:20.605Z,18.44
2023-03-04T19:28:46.938Z,18.41
2023-03-04T19:31:13.335Z,18.43
2023-03-04T19:33:39.900Z,18.43
2023-03-04T19:36:06.264Z,18.41
2023-03-04T19:38:32.560Z,18.38
2023-03-04T19:40:58.899Z,18.38
2023-03-04T19:43:25.261Z,18.35
2023-03-04T19:45:51.614Z,18.37
2023-03-04T19:48:17.990Z,18.35
2023-03-04T19:50:44.531Z,18.38
2023-03-04T19:53:10.888Z,18.36
2023-03-04T19:55:37.241Z,18.36
2023-03-04T19:58:03.634Z,18.33
2023-03-04T20:03:14.942Z,18.42
2023-03-04T20:05:41.267Z,18.40
2023-03-04T20:08:07.627Z,18.33
2023-03-04T20:10:33.987Z,18.24
2023-03-04T20:13:00.329Z,18.17
2023-03-04T20:18:20.728Z,18.09
2023-03-04T20:20:47.251Z,18.09
2023-03-04T20:23:13.648Z,18.07
2023-03-04T20:25:40.197Z,18.07
2023-03-04T20:28:06.559Z,18.07
2023-03-04T20:33:16.721Z,18.04
2023-03-04T20:35:43.183Z,17.99
2023-03-04T20:38:10.466Z,18.01
2023-03-04T20:40:36.827Z,18.00
2023-03-04T20:43:03.197Z,17.98
2023-03-04T20:48:13.592Z,17.98
2023-03-04T20:50:39.928Z,17.98
2023-03-04T20:53:06.443Z,17.98
2023-03-04T20:55:32.793Z,18.06
2023-03-04T20:57:59.127Z,18.08
2023-03-04T21:03:20.161Z,18.11
2023-03-04T21:05:46.693Z,18.09
2023-03-04T21:08:13.063Z,18.12
2023-03-04T21:10:40.645Z,18.14
2023-03-04T21:13:07.918Z,18.22
2023-03-04T21:18:18.536Z,18.95
2023-03-04T21:20:44.875Z,19.02
2023-03-04T21:23:12.331Z,19.21
2023-03-04T21:25:38.673Z,19.20
2023-03-04T21:28:05.027Z,19.08
2023-03-04T21:33:25.218Z,18.69
2023-03-04T21:35:51.598Z,18.77
2023-03-04T21:38:17.969Z,18.73
2023-03-04T21:40:44.320Z,18.50
2023-03-04T21:43:10.978Z,18.46
2023-03-04T21:48:21.250Z,18.47
2023-03-04T21:50:50.364Z,18.39
2023-03-04T21:53:16.678Z,18.46
2023-03-04T21:55:43.041Z,18.41
2023-03-04T21:58:09.380Z,18.40
2023-03-04T22:03:29.656Z,18.39
2023-03-04T22:05:56.019Z,18.38
2023-03-04T22:08:22.342Z,18.34
2023-03-04T22:10:51.567Z,18.39
2023-03-04T22:13:17.948Z,18.34
2023-03-04T22:18:31.109Z,18.35
2023-03-04T22:21:00.218Z,18.40
2023-03-04T22:23:26.553Z,18.30
2023-03-04T22:25:52.888Z,18.38
2023-03-04T22:28:19.219Z,18.27
2023-03-04T22:33:35.125Z,18.39
2023-03-04T22:36:01.517Z,18.40
2023-03-04T22:38:30.700Z,18.31
2023-03-04T22:40:59.816Z,18.39
2023-03-04T22:43:28.938Z,18.34
2023-03-04T22:48:51.784Z,18.31
2023-03-04T22:51:18.272Z,18.35
2023-03-04T22:53:47.447Z,18.32
2023-03-04T22:56:13.749Z,18.34
2023-03-04T22:58:42.875Z,18.24
2023-03-04T23:03:56.052Z,18.25
2023-03-04T23:06:22.308Z,18.25
2023-03-04T23:08:51.436Z,18.30
2023-03-04T23:11:17.764Z,18.33
2023-03-04T23:13:46.943Z,18.23
2023-03-04T23:18:59.921Z,18.36
2023-03-04T23:21:29.045Z,18.28
2023-03-04T23:23:58.158Z,18.27
2023-03-04T23:26:27.268Z,18.25
2023-03-04T23:28:56.358Z,18.27
2023-03-04T23:34:22.165Z,18.30
2023-03-04T23:36:48.553Z,18.22
2023-03-04T23:39:14.873Z,18.25
2023-03-04T23:41:41.192Z,18.20
2023-03-04T23:44:07.507Z,18.28
2023-03-04T23:49:20.527Z,18.16
2023-03-04T23:51:49.756Z,18.20
2023-03-04T23:54:18.945Z,18.21
2023-03-04T23:56:45.249Z,18.20
2023-03-04T23:59:11.567Z,18.21
